Time;durP1;ratioP1;P1;durP2;ratioP2;P2;SDS_P1;SDS_P2;PMS_P1;PMS_P2;Temp;Humidity;BMP_temperature;BMP_pressure;BME280_temperature;BME280_humidity;BME280_pressure;Samples;Min_cycle;Max_cycle;Signal;HPM_P1;HPM_P2
2021/12/18 04:30:40;;;;;;;18.90;11.80;;;;;;;8.02;56.99;100831.50;8215735;23;20256;-81
2021/12/18 04:34:02;;;;;;;16.90;11.73;;;;;;;8.24;56.08;100823.22;6906123;28;20215;-79
2021/12/18 04:37:24;;;;;;;16.20;12.13;;;;;;;7.68;57.43;100825.66;6897138;28;20256;-79
2021/12/18 04:40:46;;;;;;;15.27;10.73;;;;;;;7.56;57.38;100829.44;6895427;28;20231;-77
2021/12/18 04:44:07;;;;;;;14.60;10.50;;;;;;;7.58;57.80;100835.50;6896095;28;20188;-78
2021/12/18 04:47:30;;;;;;;13.33;9.67;;;;;;;7.44;58.38;100829.69;6897616;28;20231;-79
2021/12/18 04:50:52;;;;;;;15.80;11.07;;;;;;;7.40;58.63;100836.28;6896279;28;20264;-79
2021/12/18 04:54:13;;;;;;;13.40;10.00;;;;;;;7.46;57.74;100825.00;6896646;28;20216;-79
2021/12/18 04:57:35;;;;;;;12.47;9.40;;;;;;;7.40;58.49;100801.41;6897117;28;20309;-79
2021/12/18 05:00:57;;;;;;;16.07;10.23;;;;;;;7.23;57.18;100765.34;6897023;28;20256;-79
2021/12/18 05:04:21;;;;;;;13.60;9.67;;;;;;;7.59;57.48;100821.09;6880016;28;20213;-79
2021/12/18 05:07:42;;;;;;;12.73;10.07;;;;;;;7.74;56.60;100826.94;6896205;28;20233;-79
2021/12/18 05:11:04;;;;;;;13.53;10.00;;;;;;;7.83;57.06;100816.22;6896132;28;20736;-79
2021/12/18 05:14:26;;;;;;;12.23;9.67;;;;;;;7.92;55.96;100809.16;6883400;28;20219;-79
2021/12/18 05:17:47;;;;;;;13.07;9.60;;;;;;;8.11;55.67;100841.41;6872651;28;20340;-79
2021/12/18 05:21:10;;;;;;;14.20;9.47;;;;;;;8.00;56.26;100836.16;6869687;28;20740;-79
2021/12/18 05:24:32;;;;;;;16.33;10.90;;;;;;;7.73;56.07;100830.59;6868569;28;20221;-79
2021/12/18 05:27:54;;;;;;;12.30;10.33;;;;;;;7.93;55.89;100835.00;6874202;28;20279;-79
2021/12/18 05:31:17;;;;;;;14.33;10.27;;;;;;;8.08;55.58;100820.19;6895242;28;20237;-79
2021/12/18 05:34:39;;;;;;;14.87;9.70;;;;;;;8.11;55.38;100820.75;6895165;28;20305;-79
2021/12/18 05:38:05;;;;;;;16.73;10.30;;;;;;;8.35;54.70;100836.50;6895762;28;20205;-79
2021/12/18 05:41:27;;;;;;;13.00;9.37;;;;;;;7.71;55.29;100811.13;6870211;28;20225;-79
2021/12/18 05:44:48;;;;;;;13.03;9.90;;;;;;;7.65;56.07;100819.69;6867369;28;20238;-79
2021/12/18 05:48:10;;;;;;;12.67;9.13;;;;;;;7.87;55.64;100817.63;6868449;28;20236;-79
2021/12/18 05:51:32;;;;;;;14.63;10.07;;;;;;;7.93;55.27;100840.38;6868432;28;20224;-79
2021/12/18 05:54:54;;;;;;;15.30;9.97;;;;;;;8.13;55.28;100853.72;6878134;28;20674;-79
2021/12/18 05:58:16;;;;;;;12.83;9.53;;;;;;;8.06;54.84;100844.50;6895157;28;20279;-79
2021/12/18 06:01:38;;;;;;;13.83;9.23;;;;;;;8.04;55.09;100851.00;6894281;28;20303;-79
2021/12/18 06:04:59;;;;;;;16.93;10.40;;;;;;;8.25;54.81;100849.94;6893607;28;20244;-79
2021/12/18 06:08:21;;;;;;;14.17;9.20;;;;;;;8.25;54.36;100862.53;6893808;28;20312;-79
2021/12/18 06:11:44;;;;;;;13.70;8.90;;;;;;;8.45;54.25;100857.03;6894753;28;20232;-79
2021/12/18 06:15:06;;;;;;;13.60;9.37;;;;;;;8.31;54.17;100833.25;6892032;28;20234;-79
2021/12/18 06:18:27;;;;;;;13.33;9.70;;;;;;;8.43;54.14;100855.47;6867559;28;20207;-79
2021/12/18 06:21:49;;;;;;;14.67;10.00;;;;;;;8.28;54.70;100849.66;6893208;28;20238;-80
2021/12/18 06:25:11;;;;;;;14.60;9.87;;;;;;;8.05;54.72;100828.53;6893729;28;20215;-79
2021/12/18 06:28:34;;;;;;;17.27;10.47;;;;;;;8.27;54.83;100847.97;6894224;28;20234;-79
2021/12/18 06:31:55;;;;;;;15.10;9.70;;;;;;;8.08;54.43;100791.47;6893555;28;20234;-80
2021/12/18 06:35:17;;;;;;;15.13;9.77;;;;;;;8.20;54.75;100833.38;6893929;28;20242;-80
2021/12/18 06:38:39;;;;;;;12.80;8.90;;;;;;;8.33;54.41;100846.53;6895522;28;20212;-80
2021/12/18 06:42:00;;;;;;;13.07;9.47;;;;;;;8.30;54.56;100839.59;6892705;28;20317;-79
2021/12/18 06:45:23;;;;;;;16.47;9.97;;;;;;;8.26;54.98;100824.75;6891600;28;20214;-79
2021/12/18 06:48:45;;;;;;;16.27;10.03;;;;;;;7.88;55.23;100835.44;6892030;28;20266;-79
2021/12/18 06:52:07;;;;;;;12.90;9.13;;;;;;;8.15;55.43;100848.19;6874246;28;20234;-79
2021/12/18 06:55:28;;;;;;;16.17;9.80;;;;;;;8.21;54.80;100826.19;6866237;28;20830;-78
2021/12/18 06:58:50;;;;;;;13.60;8.90;;;;;;;8.44;54.55;100844.53;6868165;28;20686;-79
2021/12/18 07:02:13;;;;;;;14.83;9.30;;;;;;;8.38;54.63;100849.66;6868280;28;20236;-79
2021/12/18 07:05:34;;;;;;;13.47;9.20;;;;;;;8.57;54.32;100836.19;6867578;28;20235;-79
2021/12/18 07:08:56;;;;;;;13.73;9.47;;;;;;;8.51;54.02;100810.75;6871179;28;20235;-79
2021/12/18 07:12:18;;;;;;;12.93;8.93;;;;;;;8.40;54.41;100855.72;6869691;28;20231;-79
2021/12/18 07:15:40;;;;;;;12.73;9.23;;;;;;;8.08;55.91;100860.50;6893462;28;20278;-79
2021/12/18 07:19:03;;;;;;;14.83;9.70;;;;;;;8.19;55.33;100850.47;6896651;28;20544;-79
2021/12/18 07:22:24;;;;;;;12.93;9.30;;;;;;;7.63;54.95;100793.00;6897341;28;20232;-81
2021/12/18 07:25:47;;;;;;;15.60;9.53;;;;;;;7.68;56.88;100865.06;6896491;28;20212;-81
2021/12/18 07:29:09;;;;;;;16.57;9.87;;;;;;;7.77;56.55;100842.78;6896684;28;20224;-79
2021/12/18 07:32:30;;;;;;;16.93;10.43;;;;;;;7.85;56.36;100826.81;6895923;28;20235;-80
2021/12/18 07:35:53;;;;;;;15.70;9.23;;;;;;;7.81;56.34;100871.03;6896095;28;20215;-80
2021/12/18 07:39:15;;;;;;;16.37;9.60;;;;;;;7.82;56.71;100875.41;6895338;28;20616;-79
2021/12/18 07:42:37;;;;;;;14.47;8.77;;;;;;;7.63;56.47;100835.09;6868820;28;20644;-79
2021/12/18 07:45:58;;;;;;;14.20;10.67;;;;;;;8.24;56.23;100883.16;6867894;28;20586;-80
2021/12/18 07:49:20;;;;;;;13.67;9.80;;;;;;;8.28;56.37;100886.44;6869131;28;20232;-79
2021/12/18 07:52:43;;;;;;;15.57;10.50;;;;;;;8.22;55.63;100823.34;6894795;28;20224;-79
2021/12/18 07:56:05;;;;;;;13.97;9.73;;;;;;;8.41;55.05;100831.41;6894392;28;20206;-79
2021/12/18 07:59:26;;;;;;;14.90;10.43;;;;;;;8.07;55.40;100877.63;6895126;28;20204;-80
2021/12/18 08:02:48;;;;;;;16.20;10.90;;;;;;;7.85;56.50;100859.88;6874825;28;20558;-79
2021/12/18 08:06:10;;;;;;;17.13;10.70;;;;;;;8.18;55.97;100877.47;6874253;28;20200;-79
2021/12/18 08:09:33;;;;;;;13.57;9.47;;;;;;;7.97;57.12;100891.03;6879025;28;20299;-79
2021/12/18 08:12:54;;;;;;;16.80;11.00;;;;;;;8.08;56.22;100885.50;6881527;28;20242;-80
2021/12/18 08:16:16;;;;;;;18.53;11.07;;;;;;;8.07;56.20;100886.50;6881597;28;20217;-79
2021/12/18 08:19:38;;;;;;;15.43;9.53;;;;;;;8.33;55.37;100886.84;6879016;28;20266;-79
2021/12/18 08:23:00;;;;;;;17.73;11.23;;;;;;;8.19;55.78;100861.22;6888475;28;20232;-80
2021/12/18 08:26:29;;;;;;;15.00;9.83;;;;;;;8.59;55.29;100883.47;6890924;28;20645;-79
2021/12/18 08:29:51;;;;;;;14.50;10.27;;;;;;;8.38;55.92;100880.06;6901963;28;20230;-80
2021/12/18 08:33:12;;;;;;;16.83;10.23;;;;;;;7.90;57.04;100859.47;6905952;28;20230;-79
2021/12/18 08:36:34;;;;;;;18.03;10.70;;;;;;;8.08;56.63;100880.13;6883609;28;20214;-79
2021/12/18 08:39:56;;;;;;;16.07;10.37;;;;;;;8.06;56.43;100878.56;6897750;28;20202;-79
2021/12/18 08:43:19;;;;;;;14.53;10.00;;;;;;;8.51;55.22;100853.75;6898912;28;20225;-80
2021/12/18 08:46:40;;;;;;;15.40;10.80;;;;;;;8.87;54.91;100882.59;6889877;28;20230;-79
2021/12/18 08:50:03;;;;;;;17.20;12.10;;;;;;;8.83;53.95;100880.34;6886256;28;20206;-80
2021/12/18 08:53:24;;;;;;;19.27;13.07;;;;;;;8.91;54.48;100870.53;6897504;28;20217;-79
2021/12/18 08:56:46;;;;;;;20.70;14.43;;;;;;;8.69;53.99;100862.81;6901055;28;20205;-80
2021/12/18 09:00:11;;;;;;;14.43;10.17;;;;;;;8.90;54.27;100879.59;6918738;28;20206;-79
2021/12/18 09:03:33;;;;;;;16.70;10.97;;;;;;;8.93;53.72;100884.72;6908172;28;20351;-79
2021/12/18 09:06:54;;;;;;;17.40;11.50;;;;;;;8.68;53.76;100879.94;6903537;28;20230;-79
2021/12/18 09:10:16;;;;;;;15.77;11.03;;;;;;;8.42;54.53;100849.22;6890419;28;20210;-81
2021/12/18 09:13:38;;;;;;;15.77;10.40;;;;;;;8.06;55.55;100836.44;6889857;28;20205;-87
2021/12/18 09:17:01;;;;;;;26.87;14.10;;;;;;;8.58;56.45;100881.78;6878395;28;20216;-81
2021/12/18 09:20:22;;;;;;;15.63;10.67;;;;;;;8.47;55.02;100887.28;6881100;28;20218;-83
2021/12/18 09:23:44;;;;;;;44.23;20.57;;;;;;;8.39;56.75;100871.03;6880523;28;20234;-83
2021/12/18 09:27:07;;;;;;;23.77;13.77;;;;;;;8.66;56.44;100892.66;6898172;28;20229;-81
2021/12/18 09:30:28;;;;;;;14.97;9.47;;;;;;;8.88;55.34;100873.53;6886707;28;20211;-82
2021/12/18 09:33:52;;;;;;;13.67;9.60;;;;;;;9.14;52.47;100856.63;6917830;28;20209;-84
2021/12/18 09:37:13;;;;;;;13.97;10.17;;;;;;;8.59;53.08;100871.84;6887647;28;20218;-83
2021/12/18 09:40:35;;;;;;;12.50;9.13;;;;;;;8.53;52.78;100837.47;6881810;28;20237;-82
2021/12/18 09:43:57;;;;;;;14.57;9.47;;;;;;;8.57;53.22;100860.41;6880973;28;20214;-82
2021/12/18 09:47:19;;;;;;;14.60;9.97;;;;;;;8.69;52.76;100870.00;6889723;28;20226;-83
2021/12/18 09:50:44;;;;;;;12.47;9.87;;;;;;;8.72;52.49;100834.78;6909150;28;20237;-83
2021/12/18 09:54:06;;;;;;;13.50;9.50;;;;;;;8.87;52.21;100844.94;6905677;28;20213;-86
2021/12/18 09:57:28;;;;;;;13.33;9.70;;;;;;;8.08;54.11;100849.75;6903086;28;20234;-82
2021/12/18 10:00:49;;;;;;;14.17;9.70;;;;;;;8.64;53.09;100835.50;6883704;28;20230;-82
2021/12/18 10:04:25;;;;;;;15.67;10.73;;;;;;;8.33;53.47;100835.78;6892793;28;20206;-82
2021/12/18 10:08:05;;;;;;;14.47;10.47;;;;;;;7.59;55.48;100820.25;6909453;28;20238;-83
2021/12/18 10:11:27;;;;;;;13.87;9.17;;;;;;;8.07;55.06;100795.16;6903456;28;20222;-82
2021/12/18 10:14:53;;;;;;;13.60;9.80;;;;;;;7.98;55.83;100832.75;6884434;28;20219;-81
2021/12/18 10:18:14;;;;;;;11.70;9.17;;;;;;;8.77;54.16;100838.72;6894550;28;20198;-81
2021/12/18 10:21:36;;;;;;;12.50;8.90;;;;;;;9.07;52.46;100828.59;6900174;28;20228;-81
2021/12/18 10:25:05;;;;;;;13.80;9.70;;;;;;;7.67;55.70;100798.94;6904875;28;20209;-86
2021/12/18 10:28:42;;;;;;;13.90;9.63;;;;;;;7.80;55.59;100832.59;6889745;28;20224;-80
2021/12/18 10:32:06;;;;;;;14.20;9.73;;;;;;;8.31;54.48;100819.78;6902523;28;20241;-81
2021/12/18 10:35:44;;;;;;;13.17;9.27;;;;;;;8.59;53.06;100818.06;6881800;28;20198;-80
2021/12/18 10:39:05;;;;;;;11.77;8.77;;;;;;;8.52;53.66;100827.72;6885797;28;20212;-81
2021/12/18 10:42:30;;;;;;;13.27;9.10;;;;;;;7.97;53.80;100825.69;6894471;28;20639;-80
2021/12/18 10:45:57;;;;;;;14.03;9.97;;;;;;;8.57;53.69;100799.41;6912621;23;20236;-85
2021/12/18 10:49:21;;;;;;;13.47;9.77;;;;;;;9.06;51.98;100812.59;6897400;28;20265;-84
2021/12/18 10:52:43;;;;;;;13.97;9.43;;;;;;;8.96;51.23;100749.06;6898136;28;20575;-85
2021/12/18 10:56:05;;;;;;;14.67;10.00;;;;;;;9.37;50.72;100801.41;6882683;28;20242;-82
2021/12/18 10:59:31;;;;;;;12.93;9.17;;;;;;;9.39;50.83;100802.09;6867391;28;20679;-84
2021/12/18 11:02:55;;;;;;;12.43;9.10;;;;;;;9.58;50.52;100803.88;6872704;28;20691;-86
2021/12/18 11:06:22;;;;;;;15.47;9.93;;;;;;;9.50;50.49;100796.53;6868772;28;20226;-83
2021/12/18 11:13:45;;;;;;;13.57;9.80;;;;;;;8.06;53.40;100797.97;6878861;28;20209;-85
2021/12/18 11:17:10;;;;;;;12.00;9.07;;;;;;;7.34;54.05;100698.16;6886262;28;20228;-85
2021/12/18 11:20:33;;;;;;;13.93;9.57;;;;;;;7.61;54.86;100789.59;6873850;28;20772;-85
2021/12/18 11:23:57;;;;;;;15.97;10.37;;;;;;;8.14;54.09;100774.78;6891464;28;20205;-84
2021/12/18 11:27:21;;;;;;;18.17;10.30;;;;;;;7.79;54.01;100769.13;6880256;28;20237;-83
2021/12/18 11:30:42;;;;;;;14.30;10.07;;;;;;;7.78;54.92;100771.97;6882666;28;20200;-84
2021/12/18 11:34:06;;;;;;;15.87;10.10;;;;;;;7.21;55.89;100727.09;6890815;28;20393;-84
2021/12/18 11:37:28;;;;;;;14.90;10.23;;;;;;;6.79;57.67;100741.59;6889788;28;20266;-84
2021/12/18 11:40:50;;;;;;;16.63;11.33;;;;;;;7.36;55.71;100698.03;6875349;28;20209;-85
2021/12/18 11:44:34;;;;;;;16.53;11.17;;;;;;;7.30;55.77;100694.06;6871097;28;20206;-86
2021/12/18 11:47:58;;;;;;;15.70;11.17;;;;;;;7.01;56.86;100749.44;6886621;28;20232;-86
2021/12/18 11:51:22;;;;;;;17.00;11.03;;;;;;;8.05;54.63;100746.09;6887739;28;20202;-85
2021/12/18 11:54:48;;;;;;;15.37;11.47;;;;;;;8.41;53.99;100748.06;6884373;28;20217;-86
2021/12/18 11:58:13;;;;;;;20.23;11.77;;;;;;;8.91;53.05;100746.78;6884598;28;20318;-86
2021/12/18 12:01:47;;;;;;;14.90;10.20;;;;;;;9.28;52.30;100732.31;6900556;28;20226;-84
2021/12/18 12:05:19;;;;;;;15.73;11.30;;;;;;;9.64;50.99;100731.38;6901206;28;20229;-84
2021/12/18 12:08:43;;;;;;;14.27;10.77;;;;;;;8.79;51.07;100731.00;6901462;28;20244;-83
2021/12/18 12:12:06;;;;;;;15.23;11.73;;;;;;;8.32;53.90;100711.31;6884953;28;20213;-83
2021/12/18 12:19:39;;;;;;;17.07;12.17;;;;;;;7.75;54.88;100699.75;6872117;28;20206;-83
2021/12/18 12:23:02;;;;;;;16.03;11.07;;;;;;;7.84;55.57;100702.41;6869972;28;20258;-86
2021/12/18 12:26:25;;;;;;;14.30;10.70;;;;;;;8.47;52.96;100688.38;6872637;28;20217;-85
2021/12/18 12:29:49;;;;;;;15.63;11.37;;;;;;;7.94;53.74;100649.56;6872073;28;20230;-85
2021/12/18 12:33:22;;;;;;;15.73;11.37;;;;;;;7.80;55.10;100697.47;6874827;28;20217;-85
2021/12/18 12:36:45;;;;;;;17.53;12.47;;;;;;;7.61;55.02;100681.38;6885229;28;20230;-85
2021/12/18 12:40:10;;;;;;;15.03;11.07;;;;;;;7.41;56.04;100642.94;6869165;28;20341;-83
2021/12/18 12:43:41;;;;;;;19.93;12.20;;;;;;;8.42;54.16;100687.13;6867920;28;20274;-83
2021/12/18 12:47:17;;;;;;;13.57;10.37;;;;;;;8.69;52.47;100622.59;6868997;28;20262;-84
2021/12/18 12:50:39;;;;;;;14.90;11.00;;;;;;;8.32;53.77;100670.16;6868389;28;20211;-85
2021/12/18 12:54:01;;;;;;;14.60;10.07;;;;;;;8.85;52.51;100672.06;6895713;28;20218;-86
2021/12/18 12:57:51;;;;;;;15.40;10.53;;;;;;;7.62;54.52;100649.03;6898664;28;20224;-85
2021/12/18 13:01:14;;;;;;;15.20;10.80;;;;;;;7.27;55.92;100639.81;6893644;28;20294;-84
2021/12/18 13:04:36;;;;;;;15.27;10.43;;;;;;;7.08;56.68;100672.00;6870656;28;20234;-84
2021/12/18 13:07:59;;;;;;;13.53;10.80;;;;;;;7.91;54.62;100665.94;6894477;28;20232;-84
2021/12/18 13:11:24;;;;;;;12.87;10.10;;;;;;;8.86;52.79;100657.63;6896947;28;20231;-86
2021/12/18 13:14:46;;;;;;;13.70;9.97;;;;;;;7.75;54.12;100617.38;6895450;28;20300;-86
2021/12/18 13:18:10;;;;;;;13.53;10.10;;;;;;;7.89;54.76;100602.66;6882312;28;20223;-85
2021/12/18 13:21:35;;;;;;;17.77;10.93;;;;;;;8.52;53.43;100643.06;6884874;28;20227;-85
2021/12/18 13:25:05;;;;;;;12.70;9.63;;;;;;;8.26;53.61;100662.69;6893152;28;20300;-85
2021/12/18 13:28:26;;;;;;;15.73;11.00;;;;;;;7.78;54.81;100640.41;6897302;28;20236;-85
2021/12/18 13:31:50;;;;;;;14.60;10.50;;;;;;;7.90;55.48;100666.09;6893642;28;20233;-84
2021/12/18 13:35:17;;;;;;;14.90;10.23;;;;;;;8.53;53.33;100658.19;6867270;28;20230;-84
2021/12/18 13:38:44;;;;;;;15.27;10.43;;;;;;;8.60;53.20;100647.72;6878115;28;20208;-88
2021/12/18 13:42:09;;;;;;;13.47;10.80;;;;;;;8.79;52.56;100639.56;6886684;28;20217;-87
2021/12/18 13:45:31;;;;;;;16.10;11.27;;;;;;;8.58;52.97;100636.25;6891733;28;20234;-86
2021/12/18 13:48:52;;;;;;;15.60;11.23;;;;;;;8.88;53.27;100638.63;6877888;28;20234;-84
2021/12/18 13:52:31;;;;;;;13.63;11.07;;;;;;;9.23;51.75;100609.97;6874108;28;20215;-84
2021/12/18 13:55:56;;;;;;;15.10;11.43;;;;;;;9.58;51.54;100610.78;6870449;28;20241;-82
2021/12/18 13:59:19;;;;;;;16.07;11.40;;;;;;;9.10;50.93;100590.66;6870960;28;20200;-84
2021/12/18 14:02:41;;;;;;;12.67;11.30;;;;;;;9.11;52.12;100620.09;6871508;28;20227;-84
2021/12/18 14:06:08;;;;;;;13.37;11.17;;;;;;;9.39;51.86;100612.81;6876950;28;20217;-82
2021/12/18 14:09:35;;;;;;;17.07;12.53;;;;;;;9.13;52.81;100618.09;6887391;28;20222;-86
2021/12/18 14:13:09;;;;;;;13.53;10.57;;;;;;;9.60;51.23;100616.03;6881360;28;20200;-82
2021/12/18 14:16:48;;;;;;;16.80;11.27;;;;;;;9.37;52.76;100621.03;6887915;28;20300;-85
2021/12/18 14:20:13;;;;;;;16.13;12.53;;;;;;;9.29;53.02;100620.97;6893003;28;20250;-85
2021/12/18 14:23:49;;;;;;;15.83;12.97;;;;;;;9.60;52.32;100616.88;6874439;28;20206;-85
2021/12/18 14:27:39;;;;;;;17.43;12.20;;;;;;;9.89;51.26;100619.31;6879776;28;20231;-84
2021/12/18 14:35:15;;;;;;;18.03;13.43;;;;;;;9.84;50.45;100591.97;6869646;28;20254;-85
2021/12/18 14:38:37;;;;;;;19.27;12.83;;;;;;;9.84;50.40;100581.22;6881864;28;20212;-85
2021/12/18 14:42:11;;;;;;;19.10;13.80;;;;;;;10.01;50.84;100609.97;6887998;28;20208;-83
2021/12/18 14:45:36;;;;;;;20.57;14.23;;;;;;;8.98;54.20;100599.09;6882481;28;20529;-83
2021/12/18 14:49:09;;;;;;;20.53;14.40;;;;;;;8.41;54.86;100615.50;6879884;28;20586;-83
2021/12/18 14:52:31;;;;;;;21.27;15.77;;;;;;;9.27;53.39;100609.50;6876889;28;20208;-82
2021/12/18 14:55:55;;;;;;;21.80;15.20;;;;;;;8.67;54.93;100608.47;6897558;28;20234;-81
2021/12/18 14:59:18;;;;;;;21.20;15.67;;;;;;;8.82;54.07;100588.13;6895500;28;20216;-81
2021/12/18 15:03:00;;;;;;;19.77;15.17;;;;;;;8.99;54.32;100623.16;6891822;28;20207;-82
2021/12/18 15:06:24;;;;;;;19.70;15.10;;;;;;;8.97;53.49;100578.56;6868707;28;20222;-83
2021/12/18 15:09:54;;;;;;;21.07;14.93;;;;;;;8.70;54.13;100583.97;6869412;28;20707;-82
2021/12/18 15:13:18;;;;;;;20.83;14.53;;;;;;;9.32;53.60;100628.72;6870333;28;20190;-81
2021/12/18 15:16:41;;;;;;;23.03;16.00;;;;;;;9.14;53.55;100630.56;6868808;28;20258;-83
2021/12/18 15:20:04;;;;;;;21.53;15.37;;;;;;;9.11;53.48;100603.09;6880389;28;20652;-81
2021/12/18 15:23:26;;;;;;;23.20;16.73;;;;;;;9.48;53.26;100614.56;6892684;28;20204;-81
2021/12/18 15:26:56;;;;;;;24.60;16.90;;;;;;;9.38;53.60;100627.25;6890387;28;20228;-84
2021/12/18 15:30:18;;;;;;;22.53;15.77;;;;;;;8.89;54.45;100621.53;6895023;28;20218;-82
2021/12/18 15:33:40;;;;;;;25.03;17.73;;;;;;;8.46;55.50;100629.38;6892446;28;20224;-82
2021/12/18 15:37:06;;;;;;;30.40;17.10;;;;;;;8.29;56.98;100624.75;6892425;28;20230;-83
2021/12/18 15:40:28;;;;;;;29.93;17.33;;;;;;;8.90;56.06;100623.22;6893149;28;20646;-83
2021/12/18 15:43:52;;;;;;;22.03;16.77;;;;;;;8.50;56.46;100620.88;6894214;28;20272;-82
2021/12/18 15:47:15;;;;;;;25.37;18.10;;;;;;;8.12;57.22;100609.34;6891717;28;20233;-83
2021/12/18 15:50:36;;;;;;;24.90;16.87;;;;;;;8.48;56.39;100606.72;6884713;28;20231;-84
2021/12/18 15:54:01;;;;;;;26.40;17.47;;;;;;;8.35;56.99;100602.66;6895509;28;20264;-82
2021/12/18 15:57:24;;;;;;;24.50;17.10;;;;;;;8.21;57.75;100613.91;6894887;28;20231;-82
2021/12/18 16:00:53;;;;;;;27.33;17.83;;;;;;;8.06;57.62;100593.81;6894784;28;20219;-86
2021/12/18 16:04:15;;;;;;;25.87;16.83;;;;;;;8.48;56.11;100579.00;6891087;28;20292;-85
2021/12/18 16:07:55;;;;;;;27.00;17.33;;;;;;;8.89;55.64;100603.53;6878102;28;20235;-86
2021/12/18 16:11:22;;;;;;;25.07;16.47;;;;;;;7.47;57.56;100586.03;6898762;28;20234;-90
2021/12/18 16:14:50;;;;;;;26.63;17.67;;;;;;;7.55;59.62;100614.84;6878770;28;20225;-85
2021/12/18 16:18:18;;;;;;;25.30;16.80;;;;;;;8.27;57.84;100614.16;6875182;28;20233;-86
2021/12/18 16:21:40;;;;;;;24.23;15.90;;;;;;;8.96;56.14;100585.78;6875316;28;20206;-86
2021/12/18 16:25:02;;;;;;;26.67;16.87;;;;;;;8.06;57.11;100542.78;6870006;28;20304;-87
2021/12/18 16:28:25;;;;;;;27.13;17.93;;;;;;;8.03;57.72;100608.41;6865568;28;20256;-87
2021/12/18 16:31:47;;;;;;;25.27;17.63;;;;;;;8.15;58.21;100587.59;6870432;28;20216;-88
2021/12/18 16:35:10;;;;;;;24.40;17.20;;;;;;;7.86;59.07;100605.59;6883121;28;20211;-88
2021/12/18 16:39:02;;;;;;;25.80;17.63;;;;;;;8.68;56.58;100592.19;6901187;28;20217;-86
2021/12/18 16:42:36;;;;;;;26.73;18.20;;;;;;;8.66;56.37;100601.41;6887097;28;20197;-87
2021/12/18 16:45:59;;;;;;;27.93;18.53;;;;;;;7.98;57.78;100575.78;6905749;28;20239;-86
2021/12/18 16:49:23;;;;;;;28.30;18.93;;;;;;;7.72;59.27;100593.47;6908870;28;20235;-88
2021/12/18 16:52:53;;;;;;;30.87;20.90;;;;;;;7.99;58.80;100584.66;6896483;28;20207;-85
2021/12/18 16:56:15;;;;;;;31.00;18.50;;;;;;;8.27;57.52;100586.44;6874773;28;20221;-88
2021/12/18 16:59:36;;;;;;;30.83;19.60;;;;;;;8.85;56.32;100580.59;6888483;28;20214;-89
2021/12/18 17:03:02;;;;;;;26.80;17.93;;;;;;;9.09;55.11;100546.75;6866861;28;20226;-87
2021/12/18 17:06:23;;;;;;;26.83;18.50;;;;;;;9.47;54.50;100581.44;6883475;28;20321;-88
2021/12/18 17:09:45;;;;;;;28.83;18.67;;;;;;;9.05;54.51;100582.19;6903300;28;20235;-87
2021/12/18 17:13:30;;;;;;;29.97;19.83;;;;;;;9.22;54.26;100587.56;6900763;28;20213;-86
2021/12/18 17:21:20;;;;;;;27.17;18.77;;;;;;;8.81;54.93;100567.63;6881291;28;20296;-84
2021/12/18 17:24:42;;;;;;;25.93;18.77;;;;;;;9.32;54.40;100596.44;6893182;28;20204;-87
2021/12/18 17:28:08;;;;;;;28.67;19.63;;;;;;;9.20;54.07;100594.09;6880341;28;20241;-85
2021/12/18 17:31:29;;;;;;;29.00;20.50;;;;;;;9.09;53.57;100600.56;6893697;28;20225;-84
2021/12/18 17:34:51;;;;;;;36.30;23.03;;;;;;;8.74;56.39;100562.03;6898468;28;20202;-83
2021/12/18 17:38:14;;;;;;;49.47;27.70;;;;;;;8.76;55.79;100521.50;6899913;28;20232;-83
2021/12/18 17:41:36;;;;;;;28.83;18.87;;;;;;;9.21;54.15;100580.50;6902456;28;20214;-85
2021/12/18 17:45:03;;;;;;;31.53;19.57;;;;;;;9.12;53.39;100534.84;6890930;28;20210;-86
2021/12/18 17:48:26;;;;;;;28.87;19.00;;;;;;;8.09;56.18;100582.78;6877032;28;20810;-83
2021/12/18 17:52:06;;;;;;;30.10;19.90;;;;;;;8.38;56.29;100578.19;6878298;28;20662;-85
2021/12/18 17:55:38;;;;;;;29.27;19.57;;;;;;;8.93;54.74;100578.84;6881074;28;20871;-84
2021/12/18 17:59:00;;;;;;;28.27;17.77;;;;;;;8.50;54.29;100553.66;6888852;28;20331;-84
2021/12/18 18:02:22;;;;;;;30.17;18.93;;;;;;;8.72;54.78;100569.38;6893765;28;20211;-84
2021/12/18 18:05:44;;;;;;;32.23;19.00;;;;;;;8.10;56.16;100614.91;6887518;28;20277;-84
2021/12/18 18:09:07;;;;;;;31.80;20.57;;;;;;;8.19;57.10;100599.75;6888598;28;20232;-84
2021/12/18 18:12:38;;;;;;;34.80;21.20;;;;;;;7.70;57.10;100598.16;6896709;28;20205;-84
2021/12/18 18:16:06;;;;;;;35.23;22.73;;;;;;;8.40;56.45;100595.00;6874537;28;20277;-84
2021/12/18 18:19:37;;;;;;;32.87;21.03;;;;;;;8.26;56.86;100604.38;6873389;28;20301;-83
2021/12/18 18:22:58;;;;;;;35.10;21.13;;;;;;;8.89;55.14;100595.47;6882288;28;20582;-84
2021/12/18 18:26:53;;;;;;;32.33;20.87;;;;;;;8.92;54.46;100578.16;6890327;28;20704;-84
2021/12/18 18:34:39;;;;;;;;;;;;;;;;;;;;;
2021/12/18 18:38:01;;;;;;;34.57;20.60;;;;;;;8.68;55.11;100584.13;6883394;28;20225;-84
2021/12/18 18:41:23;;;;;;;33.23;20.60;;;;;;;8.44;55.12;100567.69;6875251;28;20254;-84
2021/12/18 18:44:45;;;;;;;36.00;22.50;;;;;;;8.25;55.40;100596.50;6873746;28;20222;-86
2021/12/18 18:48:23;;;;;;;36.87;22.37;;;;;;;7.46;57.02;100516.38;6890781;28;20234;-86
2021/12/18 18:51:45;;;;;;;36.43;21.77;;;;;;;7.56;58.27;100570.91;6868019;28;20225;-86
2021/12/18 18:55:08;;;;;;;34.17;21.23;;;;;;;8.53;55.66;100595.50;6891414;28;20222;-86
2021/12/18 18:58:32;;;;;;;34.77;22.77;;;;;;;8.75;54.52;100595.13;6889974;28;20204;-84
2021/12/18 19:01:54;;;;;;;38.77;22.73;;;;;;;8.60;55.17;100570.56;6891477;28;20220;-86
2021/12/18 19:05:18;;;;;;;36.30;21.90;;;;;;;8.81;53.76;100598.06;6898097;28;20205;-84
2021/12/18 19:08:40;;;;;;;33.97;21.53;;;;;;;8.42;54.98;100598.41;6900012;28;20571;-86
2021/12/18 19:12:01;;;;;;;32.73;21.47;;;;;;;8.34;55.00;100584.84;6875337;28;20230;-86
2021/12/18 19:15:23;;;;;;;33.37;20.97;;;;;;;8.67;54.82;100609.31;6867992;28;20249;-86
2021/12/18 19:18:50;;;;;;;45.20;24.40;;;;;;;7.74;56.91;100571.84;6894887;28;20203;-84
2021/12/18 19:22:13;;;;;;;33.67;20.90;;;;;;;7.78;56.70;100608.19;6883988;28;20749;-85
2021/12/18 19:25:35;;;;;;;35.77;22.37;;;;;;;7.15;58.87;100606.94;6876906;28;20810;-85
2021/12/18 19:28:57;;;;;;;36.40;21.50;;;;;;;7.72;57.22;100558.56;6876109;28;20256;-85
2021/12/18 19:32:18;;;;;;;34.10;22.03;;;;;;;8.35;55.72;100582.03;6873676;28;20211;-84
2021/12/18 19:35:42;;;;;;;33.67;21.77;;;;;;;8.69;54.83;100587.66;6876220;28;20253;-84
2021/12/18 19:39:06;;;;;;;36.77;22.63;;;;;;;8.71;54.67;100591.88;6894063;28;20198;-85
2021/12/18 19:42:28;;;;;;;37.37;21.80;;;;;;;8.61;54.98;100588.41;6877533;28;20729;-84
2021/12/18 19:45:50;;;;;;;35.33;21.87;;;;;;;8.73;54.49;100584.50;6885246;28;20237;-85
2021/12/18 19:49:12;;;;;;;36.20;21.00;;;;;;;8.67;54.55;100562.75;6892357;28;20208;-84
2021/12/18 19:52:33;;;;;;;37.50;22.17;;;;;;;8.31;55.18;100572.56;6891347;28;20210;-84
2021/12/18 19:55:56;;;;;;;54.23;31.83;;;;;;;8.51;55.22;100555.34;6871805;28;20703;-84
2021/12/18 19:59:21;;;;;;;39.93;24.27;;;;;;;8.56;55.18;100563.81;6884236;28;20226;-84
2021/12/18 20:03:06;;;;;;;36.87;21.70;;;;;;;8.64;55.18;100577.34;6881492;28;20202;-82
2021/12/18 20:06:39;;;;;;;36.23;22.50;;;;;;;8.58;54.51;100544.84;6882787;28;20256;-82
2021/12/18 20:10:01;;;;;;;39.50;23.07;;;;;;;8.13;55.84;100563.53;6897811;28;20244;-83
2021/12/18 20:13:24;;;;;;;39.00;22.97;;;;;;;7.60;57.25;100535.56;6896736;28;20200;-84
2021/12/18 20:16:52;;;;;;;41.53;25.47;;;;;;;7.85;57.51;100561.78;6891239;28;20655;-83
2021/12/18 20:20:24;;;;;;;42.20;23.37;;;;;;;8.40;56.52;100563.63;6892692;28;20577;-84
2021/12/18 20:23:57;;;;;;;43.27;25.77;;;;;;;8.10;55.51;100487.78;6890739;28;20212;-83
2021/12/18 20:28:11;;;;;;;44.27;26.67;;;;;;;8.53;55.52;100558.72;6879767;28;20236;-83
2021/12/18 20:31:34;;;;;;;43.33;24.07;;;;;;;8.53;55.05;100553.34;6799535;29;20880;-85
2021/12/18 20:34:56;;;;;;;38.90;24.33;;;;;;;8.50;54.29;100534.84;6802767;28;20214;-85